Time;durP1;ratioP1;P1;durP2;ratioP2;P2;SDS_P1;SDS_P2;PMS_P1;PMS_P2;Temp;Humidity;BMP_temperature;BMP_pressure;BME280_temperature;BME280_humidity;BME280_pressure;Samples;Min_cycle;Max_cycle;Signal;HPM_P1;HPM_P2
2022/01/24 00:02:25;;;;;;;32.30;16.23;;;;;;;2.79;81.05;97868.88;4970767;28;20062;-77
2022/01/24 00:04:51;;;;;;;28.92;16.67;;;;;;;2.81;80.87;97874.84;4970840;28;20055;-77
2022/01/24 00:07:21;;;;;;;28.85;14.85;;;;;;;2.77;80.99;97879.06;4970491;28;20055;-77
2022/01/24 00:09:48;;;;;;;30.80;15.50;;;;;;;2.75;80.90;97873.06;4970969;28;20153;-77
2022/01/24 00:12:19;;;;;;;30.83;16.45;;;;;;;2.70;80.83;97870.25;4969839;28;20055;-77
2022/01/24 00:17:34;;;;;;;29.38;15.05;;;;;;;2.54;80.61;97873.59;4969060;28;20081;-77
2022/01/24 00:28:20;;;;;;;23.25;12.02;;;;;;;2.06;81.34;97866.41;4970195;28;20066;-77
2022/01/24 00:30:47;;;;;;;20.63;11.65;;;;;;;1.97;81.08;97862.38;4970684;28;20746;-77
2022/01/24 00:33:13;;;;;;;19.95;10.43;;;;;;;1.87;81.17;97862.09;4970009;28;20050;-77
2022/01/24 00:35:40;;;;;;;22.20;11.43;;;;;;;1.80;81.09;97862.19;4970356;28;20137;-77
2022/01/24 00:38:06;;;;;;;24.45;12.07;;;;;;;1.76;81.03;97866.38;4969956;28;20054;-77
2022/01/24 00:40:37;;;;;;;27.42;13.50;;;;;;;1.65;81.20;97867.94;4970312;28;20561;-77
2022/01/24 00:43:10;;;;;;;26.73;14.18;;;;;;;1.60;81.36;97870.47;4968717;28;20054;-77
2022/01/24 00:45:51;;;;;;;28.40;13.03;;;;;;;1.55;81.26;97867.63;4950847;29;20078;-77
2022/01/24 00:48:31;;;;;;;25.70;13.05;;;;;;;1.49;81.87;97871.22;4950392;29;20051;-77
2022/01/24 00:54:00;;;;;;;26.27;13.18;;;;;;;1.38;82.99;97858.53;4950282;28;20151;-78
2022/01/24 00:56:27;;;;;;;28.38;14.65;;;;;;;1.30;83.36;97863.16;4950233;29;20134;-76
2022/01/24 00:58:53;;;;;;;28.98;14.30;;;;;;;1.24;83.52;97857.84;4950936;28;20055;-77
2022/01/24 01:01:21;;;;;;;29.35;14.13;;;;;;;1.17;83.67;97857.91;4950310;29;20058;-77
2022/01/24 01:03:47;;;;;;;28.60;14.18;;;;;;;1.13;83.70;97858.56;4950874;29;20066;-77
2022/01/24 01:06:16;;;;;;;25.83;13.15;;;;;;;1.06;83.48;97855.13;4949944;29;20072;-77
2022/01/24 01:19:43;;;;;;;26.27;13.75;;;;;;;0.65;82.88;97841.22;4969525;28;20067;-77
2022/01/24 01:22:09;;;;;;;23.95;13.15;;;;;;;0.56;83.05;97839.84;4969422;28;20077;-77
2022/01/24 01:24:41;;;;;;;26.63;13.43;;;;;;;0.52;83.06;97844.00;4969825;28;20051;-77
2022/01/24 01:27:12;;;;;;;27.35;13.68;;;;;;;0.45;83.18;97827.16;4968663;28;20522;-77
2022/01/24 01:29:49;;;;;;;27.95;14.10;;;;;;;0.35;83.17;97832.16;4969635;28;20050;-77
2022/01/24 01:32:28;;;;;;;28.05;13.77;;;;;;;0.31;83.32;97828.28;4969105;28;20047;-77
2022/01/24 01:38:13;;;;;;;28.88;12.90;;;;;;;0.19;83.48;97837.00;4965050;28;20617;-77
2022/01/24 01:54:35;;;;;;;30.58;14.95;;;;;;;-0.06;84.33;97830.75;4968467;28;20450;-77
2022/01/24 01:57:03;;;;;;;33.30;13.77;;;;;;;-0.09;84.22;97828.53;4968356;28;20066;-76
2022/01/24 01:59:30;;;;;;;30.23;14.55;;;;;;;-0.10;84.31;97824.22;4969310;28;20065;-76
2022/01/24 02:01:57;;;;;;;27.45;13.73;;;;;;;-0.13;84.29;97824.63;4969269;28;20054;-76
2022/01/24 02:04:25;;;;;;;31.63;14.95;;;;;;;-0.18;84.59;97827.13;4968442;28;20047;-76
2022/01/24 02:06:51;;;;;;;32.25;15.13;;;;;;;-0.19;84.48;97825.47;4968424;28;20057;-76
2022/01/24 02:09:18;;;;;;;31.17;14.52;;;;;;;-0.23;84.79;97818.91;4968528;28;20430;-77
2022/01/24 02:11:44;;;;;;;33.67;14.38;;;;;;;-0.21;84.67;97822.19;4968910;28;20051;-77
2022/01/24 02:14:15;;;;;;;29.55;14.13;;;;;;;-0.24;84.90;97819.94;4966568;28;20050;-76
2022/01/24 02:16:48;;;;;;;30.37;14.60;;;;;;;-0.23;85.13;97813.53;4968860;28;20057;-76
2022/01/24 02:19:26;;;;;;;31.05;14.55;;;;;;;-0.21;84.77;97811.47;4968701;28;20114;-76
2022/01/24 02:22:38;;;;;;;29.73;14.23;;;;;;;-0.27;85.16;97811.28;4968846;28;20042;-76
2022/01/24 02:24:57;;;;;;;29.67;14.63;;;;;;;-0.33;85.36;97808.66;4968262;28;20057;-79
2022/01/24 02:27:27;;;;;;;29.83;14.30;;;;;;;-0.35;85.70;97806.19;4968243;28;20073;-76
2022/01/24 02:30:07;;;;;;;29.67;14.05;;;;;;;-0.37;85.40;97792.19;4968675;28;20050;-78
2022/01/24 02:32:37;;;;;;;29.25;15.07;;;;;;;-0.42;85.38;97785.81;4968669;28;20046;-79
2022/01/24 02:35:04;;;;;;;28.27;13.90;;;;;;;-0.44;85.73;97779.88;4968002;28;20071;-76
2022/01/24 02:37:32;;;;;;;28.40;14.32;;;;;;;-0.44;85.50;97778.03;4968640;28;20051;-77
2022/01/24 02:40:02;;;;;;;32.38;14.27;;;;;;;-0.46;85.65;97788.13;4968655;28;20062;-78
2022/01/24 02:51:14;;;;;;;27.02;12.60;;;;;;;-0.54;85.75;97770.44;4968512;28;20150;-76
2022/01/24 02:53:42;;;;;;;32.10;14.98;;;;;;;-0.54;85.72;97769.63;4968420;28;20573;-76
2022/01/24 02:56:09;;;;;;;31.13;13.73;;;;;;;-0.56;85.91;97766.34;4967854;28;20074;-76
2022/01/24 02:58:35;;;;;;;34.50;15.15;;;;;;;-0.58;85.82;97768.41;4968730;28;20051;-76
2022/01/24 03:01:06;;;;;;;31.67;14.35;;;;;;;-0.59;86.00;97764.91;4967939;28;20082;-75
2022/01/24 03:03:32;;;;;;;30.05;14.40;;;;;;;-0.58;86.12;97769.22;4968441;28;20087;-76
2022/01/24 03:05:59;;;;;;;30.75;14.40;;;;;;;-0.59;85.91;97761.41;4967895;28;20054;-79
2022/01/24 03:08:25;;;;;;;30.92;14.18;;;;;;;-0.59;85.73;97756.06;4967926;28;20062;-76
2022/01/24 03:10:53;;;;;;;29.10;14.75;;;;;;;-0.60;85.74;97749.91;4968496;28;20051;-76
2022/01/24 03:13:32;;;;;;;32.25;14.88;;;;;;;-0.62;85.73;97756.50;4966037;28;20249;-77
2022/01/24 03:16:00;;;;;;;32.53;14.70;;;;;;;-0.65;85.80;97752.38;4968126;28;20077;-76
2022/01/24 03:18:27;;;;;;;29.63;14.82;;;;;;;-0.65;85.70;97757.72;4970001;28;20062;-77
2022/01/24 03:20:54;;;;;;;31.05;14.73;;;;;;;-0.68;85.66;97754.66;4972036;28;20058;-77
2022/01/24 03:23:22;;;;;;;30.15;14.55;;;;;;;-0.68;85.63;97746.63;4971491;28;20062;-77
2022/01/24 03:25:49;;;;;;;29.08;14.07;;;;;;;-0.69;85.66;97751.16;4971681;28;20061;-77
2022/01/24 03:28:17;;;;;;;28.98;14.52;;;;;;;-0.72;85.56;97745.44;4971382;28;20600;-77
2022/01/24 03:30:46;;;;;;;27.42;13.80;;;;;;;-0.73;85.58;97738.41;4971608;28;20055;-77
2022/01/24 03:33:12;;;;;;;30.55;14.32;;;;;;;-0.75;85.42;97737.81;4971098;28;20719;-77
2022/01/24 03:35:41;;;;;;;28.38;14.02;;;;;;;-0.76;85.78;97738.84;4971476;28;20066;-77
2022/01/24 03:38:07;;;;;;;29.05;14.13;;;;;;;-0.79;85.51;97740.91;4971445;28;20055;-76
2022/01/24 03:40:34;;;;;;;30.52;14.68;;;;;;;-0.79;85.55;97740.09;4971660;28;20055;-77
2022/01/24 03:43:00;;;;;;;32.17;14.77;;;;;;;-0.83;85.46;97745.06;4967692;28;20446;-77
2022/01/24 03:45:39;;;;;;;29.50;13.57;;;;;;;-0.86;85.45;97734.78;4970887;28;20058;-76
2022/01/24 03:48:09;;;;;;;29.42;14.00;;;;;;;-0.91;85.62;97737.25;4970890;28;20059;-76
2022/01/24 03:50:36;;;;;;;28.73;13.32;;;;;;;-0.92;85.56;97735.63;4971524;28;20050;-77
2022/01/24 03:53:04;;;;;;;35.75;15.00;;;;;;;-0.93;85.58;97728.63;4970985;28;20050;-76
2022/01/24 03:55:30;;;;;;;29.67;14.75;;;;;;;-0.94;85.58;97721.66;4970976;28;20055;-76
2022/01/24 03:57:57;;;;;;;32.75;14.50;;;;;;;-0.94;85.67;97727.00;4971164;28;20050;-77
2022/01/24 04:00:23;;;;;;;28.60;14.05;;;;;;;-0.94;85.49;97726.16;4970695;28;20073;-77
2022/01/24 04:02:51;;;;;;;30.05;14.27;;;;;;;-0.98;85.60;97724.94;4971388;28;20059;-77
2022/01/24 04:05:18;;;;;;;31.90;14.50;;;;;;;-0.99;85.49;97726.81;4970066;28;20061;-76
2022/01/24 04:07:44;;;;;;;32.00;15.55;;;;;;;-1.01;85.59;97723.50;4971467;28;20078;-77
2022/01/24 04:10:12;;;;;;;32.22;15.13;;;;;;;-1.04;85.74;97718.59;4970599;28;20077;-77
2022/01/24 04:12:40;;;;;;;34.58;15.23;;;;;;;-1.02;85.60;97724.53;4968919;28;20057;-76
2022/01/24 04:15:27;;;;;;;31.85;14.63;;;;;;;-1.06;85.74;97724.13;4970022;28;20079;-75
2022/01/24 04:18:24;;;;;;;29.42;14.43;;;;;;;-1.08;85.79;97730.75;4970957;28;20059;-78
2022/01/24 04:23:38;;;;;;;28.02;14.02;;;;;;;-1.03;85.26;97728.25;4970722;28;20054;-76
2022/01/24 04:26:05;;;;;;;32.85;14.65;;;;;;;-1.06;85.22;97734.00;4969566;28;20078;-76
2022/01/24 04:28:31;;;;;;;27.40;13.45;;;;;;;-1.05;85.20;97738.31;4970650;28;20062;-79
2022/01/24 04:30:58;;;;;;;30.13;14.75;;;;;;;-0.99;84.47;97725.97;4970846;28;20510;-77
2022/01/24 04:33:26;;;;;;;32.03;13.73;;;;;;;-1.02;83.68;97724.53;4970083;28;20058;-77
2022/01/24 04:35:52;;;;;;;28.73;14.27;;;;;;;-1.09;83.70;97734.44;4970193;28;20279;-77
2022/01/24 04:38:19;;;;;;;28.20;13.50;;;;;;;-1.15;83.97;97740.59;4969946;28;20061;-77
2022/01/24 04:40:45;;;;;;;34.22;16.23;;;;;;;-1.21;84.74;97733.44;4970446;28;20058;-76
2022/01/24 04:43:29;;;;;;;35.25;16.30;;;;;;;-1.20;84.76;97737.75;4969992;28;20054;-77
2022/01/24 04:46:12;;;;;;;;;;;;;;;-1.23;85.08;97732.84;4970319;28;20077;-76
2022/01/24 04:51:51;;;;;;;30.27;13.75;;;;;;;-1.23;85.32;97735.50;4949000;28;20105;-79
2022/01/24 04:57:01;;;;;;;33.63;15.30;;;;;;;-1.21;85.30;97738.78;4969871;28;20086;-75
2022/01/24 04:59:28;;;;;;;34.53;16.08;;;;;;;-1.19;85.16;97739.41;4970025;28;20509;-77
2022/01/24 05:01:54;;;;;;;32.80;14.68;;;;;;;-1.21;85.20;97736.09;4969982;28;20540;-77
2022/01/24 05:04:22;;;;;;;32.80;15.25;;;;;;;-1.20;85.27;97740.41;4969395;28;20055;-77
2022/01/24 05:06:49;;;;;;;30.00;14.32;;;;;;;-1.18;85.10;97738.38;4969132;28;20066;-79
2022/01/24 05:09:17;;;;;;;30.52;14.45;;;;;;;-1.19;84.87;97739.41;4969534;28;20058;-77
2022/01/24 05:11:49;;;;;;;34.38;15.80;;;;;;;-1.19;84.75;97748.25;4969839;28;20569;-79
2022/01/24 05:25:14;;;;;;;34.88;14.48;;;;;;;-1.38;85.17;97744.56;4968849;28;20049;-77
2022/01/24 05:27:40;;;;;;;36.15;16.27;;;;;;;-1.35;85.29;97751.34;4969361;28;20413;-76
2022/01/24 05:30:07;;;;;;;36.35;17.27;;;;;;;-1.39;85.51;97750.94;4968813;28;20057;-77
2022/01/24 05:32:34;;;;;;;37.70;16.15;;;;;;;-1.41;85.74;97747.66;4969330;28;20054;-77
2022/01/24 05:35:02;;;;;;;32.30;15.25;;;;;;;-1.42;85.83;97745.19;4968886;28;20050;-78
2022/01/24 05:37:29;;;;;;;35.50;15.75;;;;;;;-1.43;85.89;97749.72;4969098;28;20062;-78
2022/01/24 05:39:55;;;;;;;46.55;17.75;;;;;;;-1.43;86.01;97744.38;4969018;28;20051;-78
2022/01/24 05:42:22;;;;;;;38.03;16.88;;;;;;;-1.43;85.91;97752.38;4968274;28;20555;-77
2022/01/24 05:44:49;;;;;;;48.45;19.33;;;;;;;-1.44;86.14;97748.06;4968895;28;20047;-77
2022/01/24 05:47:16;;;;;;;43.47;19.67;;;;;;;-1.45;86.17;97749.09;4968329;28;20101;-77
2022/01/24 05:49:42;;;;;;;42.35;19.52;;;;;;;-1.44;86.36;97748.06;4969256;28;20421;-76
2022/01/24 05:52:11;;;;;;;48.33;19.95;;;;;;;-1.44;86.37;97742.72;4968348;28;20528;-77
2022/01/24 05:54:37;;;;;;;43.03;18.60;;;;;;;-1.45;86.24;97737.59;4968724;28;20504;-76
2022/01/24 05:57:05;;;;;;;40.80;18.67;;;;;;;-1.46;86.35;97742.13;4968460;28;20070;-77
2022/01/24 05:59:32;;;;;;;46.25;18.75;;;;;;;-1.45;86.36;97735.75;4968403;28;20421;-77
2022/01/24 06:01:58;;;;;;;41.20;19.38;;;;;;;-1.49;86.59;97733.69;4968715;28;20050;-75
2022/01/24 06:04:25;;;;;;;46.50;18.95;;;;;;;-1.51;86.91;97739.25;4968283;28;20062;-76
2022/01/24 06:06:51;;;;;;;48.47;20.38;;;;;;;-1.54;87.07;97742.31;4968516;28;20139;-76
2022/01/24 06:09:19;;;;;;;48.45;19.50;;;;;;;-1.57;87.02;97753.41;4968487;28;20461;-76
2022/01/24 06:11:46;;;;;;;52.72;22.85;;;;;;;-1.58;87.03;97751.78;4968806;28;20047;-76
2022/01/24 06:14:12;;;;;;;47.92;20.92;;;;;;;-1.59;86.89;97752.81;4967860;28;20057;-77
2022/01/24 06:16:40;;;;;;;47.15;20.20;;;;;;;-1.58;86.96;97757.13;4968203;28;20059;-77
2022/01/24 06:19:07;;;;;;;50.65;20.67;;;;;;;-1.59;87.26;97763.50;4968400;28;20049;-75
2022/01/24 06:21:33;;;;;;;47.47;20.13;;;;;;;-1.59;87.30;97755.47;4968924;28;20047;-79
2022/01/24 06:24:00;;;;;;;46.58;21.42;;;;;;;-1.55;87.30;97762.06;4967936;28;20080;-79
2022/01/24 06:26:27;;;;;;;50.72;20.67;;;;;;;-1.54;87.62;97760.22;4967965;28;20532;-76
2022/01/24 06:28:54;;;;;;;54.95;20.85;;;;;;;-1.56;87.80;97765.75;4968625;28;20055;-79
2022/01/24 06:31:21;;;;;;;50.20;20.50;;;;;;;-1.57;87.86;97764.09;4968398;28;20054;-77
2022/01/24 06:33:48;;;;;;;51.45;20.38;;;;;;;-1.54;87.83;97762.88;4968462;28;20838;-77
2022/01/24 06:36:14;;;;;;;45.60;20.65;;;;;;;-1.54;88.03;97765.53;4967997;28;20085;-78
2022/01/24 06:38:41;;;;;;;49.80;21.60;;;;;;;-1.54;87.89;97761.03;4968823;28;20422;-77
2022/01/24 06:41:07;;;;;;;48.95;20.88;;;;;;;-1.54;87.65;97765.53;4968002;28;20058;-78
2022/01/24 06:43:35;;;;;;;47.97;20.58;;;;;;;-1.50;87.79;97764.13;4967758;28;20055;-78
2022/01/24 06:46:02;;;;;;;51.33;21.00;;;;;;;-1.48;87.91;97765.53;4967557;28;20050;-79
2022/01/24 06:48:29;;;;;;;52.30;20.35;;;;;;;-1.45;88.03;97773.16;4968488;28;20050;-79
2022/01/24 06:50:55;;;;;;;45.70;20.30;;;;;;;-1.42;88.17;97767.38;4968911;28;20066;-78
2022/01/24 06:53:22;;;;;;;49.72;21.08;;;;;;;-1.39;88.04;97771.50;4971910;28;20058;-79
2022/01/24 06:55:48;;;;;;;53.35;21.25;;;;;;;-1.35;87.97;97767.41;4971814;28;20080;-79
2022/01/24 06:58:15;;;;;;;45.38;20.38;;;;;;;-1.30;87.70;97764.09;4971569;28;20046;-79
2022/01/24 07:00:43;;;;;;;49.95;21.77;;;;;;;-1.27;87.77;97774.34;4972336;28;20058;-79
2022/01/24 07:03:09;;;;;;;50.83;20.27;;;;;;;-1.23;87.68;97764.91;4971578;28;20055;-78
2022/01/24 07:05:36;;;;;;;46.85;21.10;;;;;;;-1.21;87.69;97770.84;4971659;28;20054;-78
2022/01/24 07:08:02;;;;;;;50.03;20.15;;;;;;;-1.17;87.65;97772.09;4971639;28;20893;-78
2022/01/24 07:10:29;;;;;;;47.60;21.17;;;;;;;-1.13;87.59;97766.13;4972234;28;20055;-78
2022/01/24 07:12:55;;;;;;;49.13;21.80;;;;;;;-1.10;87.39;97775.56;4971824;28;20059;-78
2022/01/24 07:15:30;;;;;;;47.38;20.73;;;;;;;-1.07;87.17;97769.81;4971254;28;20058;-80
2022/01/24 07:18:14;;;;;;;44.67;21.45;;;;;;;-1.00;86.74;97785.81;4971709;28;20054;-79
2022/01/24 07:20:40;;;;;;;45.95;20.25;;;;;;;-0.96;86.58;97784.38;4972159;28;20150;-79
2022/01/24 07:23:07;;;;;;;45.90;20.88;;;;;;;-0.93;86.11;97782.13;4971424;28;20050;-78
2022/01/24 07:25:33;;;;;;;42.45;19.58;;;;;;;-0.90;85.42;97786.22;4971575;28;20054;-79
2022/01/24 07:28:00;;;;;;;38.55;19.10;;;;;;;-0.89;84.80;97794.03;4971442;28;20075;-79
2022/01/24 07:30:27;;;;;;;37.17;18.20;;;;;;;-0.91;83.85;97796.09;4971166;28;20051;-79
2022/01/24 07:32:54;;;;;;;36.13;18.20;;;;;;;-0.90;83.24;97797.72;4971715;28;20059;-76
2022/01/24 07:35:22;;;;;;;33.45;17.05;;;;;;;-0.95;83.14;97800.19;4970915;28;20069;-79
2022/01/24 07:37:48;;;;;;;36.47;17.15;;;;;;;-0.95;83.71;97800.19;4971275;28;20057;-77
2022/01/24 07:40:15;;;;;;;38.00;18.65;;;;;;;-0.92;84.07;97807.81;4971047;28;20058;-79
2022/01/24 07:42:54;;;;;;;41.97;19.83;;;;;;;-0.88;84.58;97810.91;4971139;28;20073;-79
2022/01/24 07:45:23;;;;;;;42.35;19.85;;;;;;;-0.82;85.42;97816.22;4970726;28;20050;-79
2022/01/24 07:47:50;;;;;;;44.38;21.10;;;;;;;-0.71;85.69;97812.09;4971416;28;20657;-79
2022/01/24 07:50:17;;;;;;;38.70;20.52;;;;;;;-0.63;86.16;97813.69;4971203;28;20061;-78
2022/01/24 07:52:45;;;;;;;43.45;20.60;;;;;;;-0.54;86.27;97817.78;4971230;28;20054;-79
2022/01/24 07:55:12;;;;;;;40.65;19.92;;;;;;;-0.40;85.57;97807.88;4970426;28;20058;-76
2022/01/24 07:57:38;;;;;;;35.67;18.75;;;;;;;-0.31;84.92;97811.94;4971136;28;20054;-77
2022/01/24 08:00:09;;;;;;;33.17;19.08;;;;;;;-0.20;85.09;97813.94;4970634;28;20047;-79
2022/01/24 08:02:36;;;;;;;39.53;21.25;;;;;;;-0.07;85.08;97813.03;4971143;28;20498;-76
2022/01/24 08:05:03;;;;;;;33.50;17.75;;;;;;;0.06;84.98;97821.03;4969407;28;20394;-76
2022/01/24 08:07:30;;;;;;;36.30;18.73;;;;;;;0.15;84.97;97822.38;4970786;28;20059;-78
2022/01/24 08:09:58;;;;;;;34.03;17.13;;;;;;;0.25;84.49;97822.75;4971154;28;20461;-76
2022/01/24 08:12:24;;;;;;;29.30;16.40;;;;;;;0.30;83.82;97829.31;4970664;28;20101;-78
2022/01/24 08:14:51;;;;;;;31.55;16.35;;;;;;;0.32;83.47;97824.56;4970943;28;20514;-77
2022/01/24 08:17:18;;;;;;;31.98;16.95;;;;;;;0.31;82.97;97826.41;4970127;28;20426;-77
2022/01/24 08:19:45;;;;;;;27.88;15.45;;;;;;;0.22;82.34;97823.19;4970921;28;20458;-77
2022/01/24 08:22:13;;;;;;;34.40;15.48;;;;;;;0.24;82.52;97822.97;4970202;28;20047;-77
2022/01/24 08:24:39;;;;;;;29.83;15.50;;;;;;;0.18;82.46;97826.50;4970733;28;20070;-76
2022/01/24 08:27:07;;;;;;;48.45;16.30;;;;;;;0.14;82.41;97831.47;4969918;28;20098;-76
2022/01/24 08:29:33;;;;;;;50.03;16.48;;;;;;;0.09;82.68;97833.97;4970933;28;20057;-77
2022/01/24 08:32:00;;;;;;;35.25;16.65;;;;;;;0.11;83.10;97833.78;4970465;28;20058;-76
2022/01/24 08:34:26;;;;;;;39.03;17.65;;;;;;;0.15;83.20;97843.81;4970051;28;20094;-77
2022/01/24 08:36:53;;;;;;;44.65;16.95;;;;;;;0.14;83.25;97836.00;4970056;28;20058;-76
2022/01/24 08:39:19;;;;;;;46.35;17.98;;;;;;;0.18;83.07;97840.72;4969960;28;20074;-77
2022/01/24 08:41:59;;;;;;;43.88;17.85;;;;;;;0.25;83.04;97838.81;4970647;28;20520;-77
2022/01/24 08:45:42;;;;;;;40.58;17.48;;;;;;;0.22;82.57;97839.25;4969681;28;20054;-77
2022/01/24 08:47:20;;;;;;;35.83;16.23;;;;;;;0.24;82.78;97847.91;4969272;28;20109;-79
2022/01/24 08:49:46;;;;;;;38.70;17.38;;;;;;;0.29;82.97;97843.75;4970253;28;20047;-77
2022/01/24 08:52:13;;;;;;;34.92;16.88;;;;;;;0.31;82.56;97845.16;4969847;28;20051;-77
2022/01/24 08:54:39;;;;;;;33.72;18.30;;;;;;;0.32;82.47;97837.97;4970132;28;20065;-77
2022/01/24 08:57:07;;;;;;;36.03;17.67;;;;;;;0.35;82.38;97842.88;4969251;28;20524;-77
2022/01/24 08:59:35;;;;;;;34.63;16.75;;;;;;;0.45;81.93;97851.28;4970273;28;20058;-80
2022/01/24 09:02:02;;;;;;;43.55;18.20;;;;;;;0.47;82.00;97841.13;4969761;28;20086;-76
2022/01/24 09:04:28;;;;;;;40.15;19.05;;;;;;;0.49;82.35;97855.97;4969736;28;20509;-77
2022/01/24 09:06:57;;;;;;;48.08;18.27;;;;;;;0.52;82.80;97849.34;4969465;28;20066;-79
2022/01/24 09:09:24;;;;;;;56.28;17.88;;;;;;;0.63;82.04;97856.72;4969500;28;20137;-77
2022/01/24 09:11:50;;;;;;;52.20;17.95;;;;;;;0.64;82.19;97857.53;4969854;28;20063;-77
2022/01/24 09:14:17;;;;;;;38.80;17.13;;;;;;;0.62;82.69;97859.59;4969227;28;20109;-78
2022/01/24 09:16:46;;;;;;;51.00;16.60;;;;;;;0.60;82.84;97859.81;4968437;28;20062;-77
2022/01/24 09:19:13;;;;;;;72.60;17.45;;;;;;;0.62;83.42;97854.22;4969394;28;20145;-77
2022/01/24 09:21:40;;;;;;;44.38;17.20;;;;;;;0.65;83.50;97861.84;4969946;28;20047;-77
2022/01/24 09:24:07;;;;;;;55.80;19.65;;;;;;;0.64;83.76;97863.72;4968947;28;20058;-76
2022/01/24 09:26:34;;;;;;;56.25;18.80;;;;;;;0.69;84.11;97861.22;4969185;28;20065;-77
2022/01/24 09:29:01;;;;;;;54.85;17.52;;;;;;;0.78;84.16;97865.28;4969674;28;20050;-77
2022/01/24 09:31:27;;;;;;;52.05;17.27;;;;;;;0.83;83.84;97855.72;4969275;28;20045;-77
2022/01/24 09:33:55;;;;;;;41.95;16.15;;;;;;;0.91;84.31;97868.88;4969658;28;20055;-77
2022/01/24 09:36:22;;;;;;;43.40;16.63;;;;;;;1.03;84.37;97856.38;4968518;28;20058;-77
2022/01/24 09:38:49;;;;;;;48.38;17.60;;;;;;;1.12;84.23;97860.44;4969440;28;20050;-77
2022/01/24 09:41:16;;;;;;;52.38;15.90;;;;;;;1.18;83.92;97862.22;4968925;28;20050;-77
2022/01/24 09:43:44;;;;;;;39.15;15.32;;;;;;;1.24;83.50;97857.84;4969317;28;20066;-77
2022/01/24 09:46:12;;;;;;;37.03;15.80;;;;;;;1.32;83.10;97864.78;4968431;28;20075;-77
2022/01/24 09:48:39;;;;;;;41.42;16.50;;;;;;;1.36;83.13;97866.81;4969382;28;20143;-77
2022/01/24 09:51:07;;;;;;;37.67;15.43;;;;;;;1.40;82.76;97864.47;4969038;28;20395;-77
2022/01/24 09:53:34;;;;;;;34.83;16.13;;;;;;;1.43;82.58;97861.38;4969189;28;20051;-77
2022/01/24 09:56:03;;;;;;;38.85;15.68;;;;;;;1.50;82.67;97872.84;4969033;28;20049;-77
2022/01/24 09:58:32;;;;;;;38.67;16.42;;;;;;;1.54;82.91;97872.19;4968867;28;20399;-77
2022/01/24 10:00:58;;;;;;;40.45;17.13;;;;;;;1.66;83.23;97877.63;4969487;28;20054;-77
2022/01/24 10:03:26;;;;;;;42.60;16.42;;;;;;;1.76;82.33;97877.91;4968675;28;20469;-77
2022/01/24 10:05:55;;;;;;;38.15;15.85;;;;;;;1.90;82.56;97877.78;4968620;28;20065;-76
2022/01/24 10:08:24;;;;;;;40.13;16.83;;;;;;;1.94;82.41;97874.41;4968471;28;20054;-78
2022/01/24 10:10:52;;;;;;;40.58;16.30;;;;;;;1.93;81.39;97864.72;4969354;28;20058;-77
2022/01/24 10:16:30;;;;;;;36.70;15.70;;;;;;;2.15;82.06;97862.38;4968530;28;20472;-77
2022/01/24 10:19:08;;;;;;;37.38;16.52;;;;;;;2.26;82.29;97856.22;4969050;28;20133;-77
2022/01/24 10:21:41;;;;;;;34.20;14.77;;;;;;;2.31;81.77;97864.41;4968918;28;20486;-78
2022/01/24 10:24:09;;;;;;;36.38;15.05;;;;;;;2.33;81.22;97856.94;4968289;28;20051;-77
2022/01/24 10:26:35;;;;;;;35.05;16.10;;;;;;;2.39;81.09;97854.38;4968764;28;20054;-76
2022/01/24 10:29:09;;;;;;;32.42;14.02;;;;;;;2.46;80.45;97860.50;4968493;28;20059;-77
2022/01/24 10:31:46;;;;;;;32.65;14.68;;;;;;;2.49;79.64;97855.47;4968919;28;20164;-77
2022/01/24 10:34:17;;;;;;;34.17;14.55;;;;;;;2.49;78.64;97857.34;4968417;28;20062;-76
2022/01/24 10:36:46;;;;;;;30.52;13.57;;;;;;;2.53;78.69;97850.47;4968987;28;20474;-77
2022/01/24 10:39:19;;;;;;;35.05;14.98;;;;;;;2.55;78.64;97854.53;4968384;28;20062;-78
2022/01/24 10:41:58;;;;;;;31.30;13.98;;;;;;;2.64;79.54;97857.75;4968918;28;20130;-77
2022/01/24 10:44:29;;;;;;;32.85;15.15;;;;;;;2.78;79.53;97859.19;4968118;28;20062;-76
2022/01/24 10:47:12;;;;;;;30.30;15.35;;;;;;;2.83;78.99;97856.63;4968700;28;20046;-77
2022/01/24 10:49:39;;;;;;;30.00;14.68;;;;;;;2.93;78.99;97849.84;4968768;28;20564;-77
2022/01/24 10:52:10;;;;;;;33.95;15.50;;;;;;;3.12;78.80;97845.97;4968217;28;20142;-77
2022/01/24 10:54:41;;;;;;;31.92;15.85;;;;;;;3.24;77.26;97846.00;4968726;28;20070;-77
2022/01/24 10:57:07;;;;;;;32.92;15.02;;;;;;;3.43;77.90;97846.69;4968379;28;20054;-77
2022/01/24 10:59:36;;;;;;;32.88;14.90;;;;;;;3.61;75.57;97841.16;4968863;28;20061;-77
2022/01/24 11:02:03;;;;;;;30.95;14.77;;;;;;;3.82;75.26;97847.81;4968129;28;20054;-76
2022/01/24 11:04:33;;;;;;;31.48;15.55;;;;;;;3.88;75.33;97847.66;4968487;28;20054;-76
2022/01/24 11:07:02;;;;;;;29.67;15.82;;;;;;;4.04;73.61;97845.28;4968355;28;20058;-77
2022/01/24 11:09:30;;;;;;;27.25;14.73;;;;;;;4.19;73.13;97842.88;4968517;28;20051;-78
2022/01/24 11:12:00;;;;;;;33.20;15.57;;;;;;;4.29;72.48;97837.69;4968559;28;20057;-77
2022/01/24 11:14:28;;;;;;;33.85;17.67;;;;;;;4.21;72.21;97829.97;4968130;28;20050;-76
2022/01/24 11:16:58;;;;;;;28.73;14.43;;;;;;;4.26;72.63;97826.56;4968630;28;20061;-76
2022/01/24 11:19:29;;;;;;;28.52;14.85;;;;;;;4.21;72.57;97823.75;4967858;28;20137;-77
2022/01/24 11:21:57;;;;;;;27.98;13.82;;;;;;;4.28;72.43;97830.66;4968528;28;20158;-77
2022/01/24 11:24:30;;;;;;;28.67;14.02;;;;;;;4.25;72.16;97828.44;4967865;28;20742;-77
2022/01/24 11:26:56;;;;;;;29.10;14.73;;;;;;;4.26;71.64;97826.56;4968393;28;20054;-77
2022/01/24 11:29:25;;;;;;;28.27;14.57;;;;;;;4.41;73.39;97818.75;4968164;28;20043;-77
2022/01/24 11:32:02;;;;;;;31.27;14.60;;;;;;;4.49;71.83;97828.31;4968287;28;20054;-76
2022/01/24 11:34:35;;;;;;;28.92;14.50;;;;;;;4.55;72.54;97821.97;4968220;28;20051;-77
2022/01/24 11:37:02;;;;;;;27.15;14.75;;;;;;;4.68;71.61;97821.63;4967888;28;20050;-76
2022/01/24 11:39:28;;;;;;;28.50;14.77;;;;;;;5.00;70.69;97821.06;4970413;28;20059;-76
2022/01/24 11:41:55;;;;;;;25.77;13.95;;;;;;;5.26;69.78;97814.97;4971618;28;20058;-77
2022/01/24 11:44:23;;;;;;;26.90;14.48;;;;;;;5.49;69.60;97814.78;4971174;28;20059;-77
2022/01/24 11:46:55;;;;;;;28.08;14.73;;;;;;;5.67;68.48;97815.56;4971750;28;20059;-77
2022/01/24 11:49:31;;;;;;;30.70;15.77;;;;;;;5.86;67.78;97810.66;4971459;28;20065;-77
2022/01/24 11:52:04;;;;;;;24.45;13.00;;;;;;;5.88;66.64;97817.44;4971791;28;20106;-78
2022/01/24 11:54:44;;;;;;;25.77;13.13;;;;;;;5.86;65.78;97813.38;4971104;28;20055;-77
2022/01/24 11:57:27;;;;;;;23.77;12.82;;;;;;;5.71;64.94;97805.88;4971411;28;20129;-77
2022/01/24 12:00:25;;;;;;;25.92;14.32;;;;;;;5.60;65.21;97806.81;4971503;28;20415;-77
2022/01/24 12:02:57;;;;;;;25.38;14.02;;;;;;;5.34;65.69;97805.66;4971181;28;20263;-76
2022/01/24 12:05:26;;;;;;;24.88;14.55;;;;;;;5.34;66.48;97801.06;4970829;28;20054;-76
2022/01/24 12:07:55;;;;;;;22.52;12.65;;;;;;;5.30;65.91;97799.94;4971412;28;20147;-77
2022/01/24 12:10:43;;;;;;;21.10;12.40;;;;;;;5.20;65.51;97795.19;4970891;28;20055;-77
2022/01/24 12:13:17;;;;;;;23.77;13.75;;;;;;;5.24;67.04;97799.03;4971138;28;20175;-77
2022/01/24 12:15:59;;;;;;;22.77;13.18;;;;;;;5.19;66.55;97792.75;4971023;28;20728;-77
2022/01/24 12:19:07;;;;;;;20.42;12.43;;;;;;;5.22;67.19;97792.25;4970877;28;20069;-76
2022/01/24 12:21:39;;;;;;;19.83;11.73;;;;;;;5.25;66.65;97791.75;4970897;28;20054;-77
2022/01/24 12:24:09;;;;;;;14.57;8.33;;;;;;;5.24;66.07;97790.13;4970280;28;20051;-76
2022/01/24 12:26:39;;;;;;;17.17;10.55;;;;;;;5.32;66.09;97778.88;4971302;28;20282;-76
2022/01/24 12:29:09;;;;;;;16.85;11.23;;;;;;;5.49;66.22;97790.47;4970583;28;20051;-77
2022/01/24 12:31:39;;;;;;;20.92;11.02;;;;;;;5.58;64.93;97784.63;4971150;28;20134;-76
2022/01/24 12:34:12;;;;;;;18.98;10.93;;;;;;;5.61;64.67;97784.13;4970351;28;20059;-77
2022/01/24 12:37:07;;;;;;;20.42;11.20;;;;;;;5.52;64.27;97791.03;4970846;28;20047;-77
2022/01/24 12:39:54;;;;;;;19.52;11.68;;;;;;;5.30;64.68;97788.31;4970881;28;20242;-77
2022/01/24 12:42:51;;;;;;;18.25;10.98;;;;;;;5.00;65.94;97788.66;4970008;28;20101;-77
2022/01/24 12:48:10;;;;;;;19.67;11.35;;;;;;;4.57;67.95;97785.56;4970170;28;20129;-77
2022/01/24 12:50:37;;;;;;;20.98;11.55;;;;;;;4.37;68.27;97786.03;4970474;28;20660;-76